»·PEaware :: SWA3223 KLAS-KMDW

SWA3223 :: KLAS-KMDW

FLIGHT INFORMATION

Flight Status: Arrived
Operator:
Southwest Airlines
More flights by this operator :: More flights under this callsign
Pilot: Daniel W. (24238)
Aircraft: BOEING 737-700
(B737)
More flights by this aircraft type
Origin: KLAS McCarran Intl
United States
Destination: KMDW Chicago-Midway
United States
More flights between these airports :: More routes between these airports
Route: STAAV8 DVC J146 HBU FLOOD PUB J64 PWE JALAP ENDEE6
File this flight plan on PilotEdge
Remarks: PBN / A1D1O1S2T1 NAV / RNVD1E1A1 RNP10 DOF / 210108 REG / N478WN EET / KZDV0027 KZMP0147 KZAU0221 CODE / A5E0D3 PER / C
Altitude:
(Current/Filed)
37,000ft
Speed:
(Current/Filed)
438kts
Departed: 08-Jan-21 09:14 AM
Arrived: 08-Jan-21 12:18 PM
Distance/Time
Traveled:
1318nm/3:04
Distance/Time
To Go:
Arrived

Flight Plot

Page will automatically refresh every two minutes.

Flight plan parsing failed; only flown route is shown


Map Options




Map Legend


Flown Route
Filed Route
Departure Airport
Arrival Airport
Navaid (VOR, NDB)
Fix

Horizontal Profiles

Position Reports

Time Latitude Longitude Heading Altitude Ground
Speed
08-Jan-21 08:22 36.082309 -115.153196 25 2189ft 0kts
08-Jan-21 08:23 36.082309 -115.153196 25 2189ft 0kts
08-Jan-21 08:24 36.082309 -115.153196 25 2189ft 0kts
08-Jan-21 08:25 36.082309 -115.153196 25 2189ft 0kts
08-Jan-21 08:26 36.082309 -115.153196 25 2189ft 0kts
08-Jan-21 08:27 36.082309 -115.153196 25 2189ft 0kts
08-Jan-21 08:28 36.082309 -115.153196 25 2189ft 0kts
08-Jan-21 08:29 36.082309 -115.153196 25 2189ft 0kts
08-Jan-21 08:30 36.082309 -115.153196 25 2189ft 0kts
08-Jan-21 08:31 36.082309 -115.153196 25 2189ft 0kts
08-Jan-21 08:32 36.082309 -115.153196 25 2189ft 0kts
08-Jan-21 08:33 36.082309 -115.153196 25 2189ft 0kts
08-Jan-21 08:34 36.082309 -115.153196 25 2189ft 0kts
08-Jan-21 08:35 36.082309 -115.153196 25 2189ft 0kts
08-Jan-21 08:36 36.082309 -115.153196 25 2189ft 0kts
08-Jan-21 08:37 36.082309 -115.153196 25 2189ft 0kts
08-Jan-21 08:38 36.082309 -115.153196 25 2189ft 0kts
08-Jan-21 08:39 36.082309 -115.153196 25 2189ft 0kts
08-Jan-21 08:40 36.082309 -115.153196 25 2189ft 0kts
08-Jan-21 08:41 36.082309 -115.153196 25 2189ft 0kts
08-Jan-21 08:42 36.082309 -115.153196 25 2189ft 0kts
08-Jan-21 08:43 36.082309 -115.153196 25 2189ft 0kts
08-Jan-21 08:44 36.082309 -115.153196 25 2189ft 0kts
08-Jan-21 08:45 36.082309 -115.153196 25 2189ft 0kts
08-Jan-21 08:46 36.082309 -115.153196 25 2189ft 0kts
08-Jan-21 08:47 36.082309 -115.153196 25 2189ft 0kts
08-Jan-21 08:48 36.082309 -115.153196 25 2189ft 0kts
08-Jan-21 08:49 36.082309 -115.153196 25 2189ft 0kts
08-Jan-21 08:50 36.082309 -115.153196 25 2189ft 0kts
08-Jan-21 08:51 36.082309 -115.153196 25 2189ft 0kts
08-Jan-21 08:52 36.082309 -115.153196 25 2189ft 0kts
08-Jan-21 08:53 36.082309 -115.153196 25 2189ft 0kts
08-Jan-21 08:54 36.082309 -115.153196 25 2189ft 0kts
08-Jan-21 08:55 36.082309 -115.153196 25 2189ft 0kts
08-Jan-21 08:56 36.082309 -115.153196 25 2189ft 0kts
08-Jan-21 08:57 36.082309 -115.153196 25 2189ft 0kts
08-Jan-21 08:58 36.082309 -115.153196 25 2189ft 0kts
08-Jan-21 08:59 36.082309 -115.153196 25 2189ft 0kts
08-Jan-21 09:00 36.082309 -115.153196 25 2189ft 0kts
08-Jan-21 09:01 36.082309 -115.153196 25 2189ft 0kts
08-Jan-21 09:02 36.082309 -115.153196 25 2189ft 0kts
08-Jan-21 09:03 36.081968 -115.153647 86 2189ft 2kts
08-Jan-21 09:04 36.082322 -115.154393 154 2189ft 1kts
08-Jan-21 09:05 36.082322 -115.154393 154 2189ft 0kts
08-Jan-21 09:06 36.082322 -115.154393 154 2189ft 0kts
08-Jan-21 09:07 36.079542 -115.153785 154 2189ft 19kts
08-Jan-21 09:08 36.077837 -115.147935 94 2189ft 19kts
08-Jan-21 09:09 36.077541 -115.140218 90 2189ft 21kts
08-Jan-21 09:10 36.077544 -115.132688 89 2189ft 23kts
08-Jan-21 09:11 36.077552 -115.125148 90 2189ft 20kts
08-Jan-21 09:12 36.076426 -115.122020 269 2189ft 15kts
08-Jan-21 09:13 36.076358 -115.159486 269 2718ft 167kts
08-Jan-21 09:14 36.075788 -115.223208 268 4941ft 204kts
08-Jan-21 09:15 36.092772 -115.294988 326 7382ft 242kts
08-Jan-21 09:16 36.156810 -115.285368 39 10496ft 258kts
08-Jan-21 09:17 36.192780 -115.199221 71 12949ft 316kts
08-Jan-21 09:19 36.199049 -115.082112 89 15210ft 371kts
08-Jan-21 09:20 36.198973 -114.948252 89 17963ft 400kts
08-Jan-21 09:21 36.200123 -114.807194 89 20771ft 418kts
08-Jan-21 09:22 36.198963 -114.660131 91 23256ft 435kts
08-Jan-21 09:23 36.197531 -114.507573 92 25406ft 450kts
08-Jan-21 09:24 36.195270 -114.350295 92 27215ft 466kts
08-Jan-21 09:25 36.200000 -114.186855 82 28796ft 482kts
08-Jan-21 09:26 36.220168 -114.020240 82 30193ft 495kts
08-Jan-21 09:27 36.240140 -113.849052 82 31439ft 506kts
08-Jan-21 09:28 36.260645 -113.677067 82 32940ft 505kts
08-Jan-21 09:29 36.280890 -113.504208 82 34275ft 505kts
08-Jan-21 09:30 36.300185 -113.331971 82 35498ft 504kts
08-Jan-21 09:31 36.333763 -113.164252 65 36658ft 500kts
08-Jan-21 09:32 36.392156 -113.007928 62 37347ft 502kts
08-Jan-21 09:33 36.450317 -112.850495 62 37363ft 499kts
08-Jan-21 09:33 36.498833 -112.720438 62 37365ft 498kts
08-Jan-21 09:35 36.566057 -112.537647 62 37368ft 497kts
08-Jan-21 09:36 36.623275 -112.380785 62 37374ft 497kts
08-Jan-21 09:36 36.670797 -112.249851 62 37376ft 497kts
08-Jan-21 09:37 36.727511 -112.092846 62 37377ft 497kts
08-Jan-21 09:38 36.783987 -111.935688 62 37380ft 496kts
08-Jan-21 09:40 36.849663 -111.751938 62 37385ft 496kts
08-Jan-21 09:40 36.896226 -111.620976 62 37388ft 495kts
08-Jan-21 09:41 36.951986 -111.463397 62 37389ft 496kts
08-Jan-21 09:42 37.007513 -111.305665 62 37390ft 495kts
08-Jan-21 09:43 37.062849 -111.147647 62 37390ft 495kts
08-Jan-21 09:44 37.117796 -110.989914 62 37392ft 494kts
08-Jan-21 09:45 37.172495 -110.832066 62 37395ft 493kts
08-Jan-21 09:46 37.227151 -110.673499 62 37402ft 493kts
08-Jan-21 09:47 37.281359 -110.515398 62 37417ft 493kts
08-Jan-21 09:48 37.335221 -110.357470 62 37418ft 492kts
08-Jan-21 09:49 37.389041 -110.198809 62 37420ft 492kts
08-Jan-21 09:50 37.442546 -110.040241 62 37422ft 491kts
08-Jan-21 09:51 37.495652 -109.881996 62 37423ft 490kts
08-Jan-21 09:52 37.548506 -109.723651 62 37425ft 490kts
08-Jan-21 09:53 37.601008 -109.565506 62 37429ft 491kts
08-Jan-21 09:54 37.653696 -109.405927 62 37429ft 490kts
08-Jan-21 09:55 37.701304 -109.244588 73 37421ft 495kts
08-Jan-21 09:56 37.726203 -109.073252 77 37408ft 496kts
08-Jan-21 09:57 37.749355 -108.900965 76 37392ft 496kts
08-Jan-21 09:58 37.773403 -108.729111 76 37381ft 496kts
08-Jan-21 09:59 37.796979 -108.557512 76 37362ft 496kts
08-Jan-21 10:00 37.821035 -108.385837 76 37356ft 495kts
08-Jan-21 10:01 37.844689 -108.213970 76 37353ft 496kts
08-Jan-21 10:02 37.867983 -108.041413 76 37352ft 496kts
08-Jan-21 10:03 37.890940 -107.869218 76 37350ft 496kts
08-Jan-21 10:04 37.913602 -107.697229 77 37352ft 496kts
08-Jan-21 10:05 37.935993 -107.525292 76 37360ft 496kts
08-Jan-21 10:06 37.958264 -107.352254 77 37376ft 495kts
08-Jan-21 10:07 37.980473 -107.180017 77 37405ft 496kts
08-Jan-21 10:08 38.002018 -107.006538 77 37405ft 499kts
08-Jan-21 10:09 38.023359 -106.833244 77 37384ft 498kts
08-Jan-21 10:10 38.044308 -106.659426 78 37372ft 498kts
08-Jan-21 10:11 38.065126 -106.485460 77 37362ft 498kts
08-Jan-21 10:12 38.086502 -106.311420 77 37353ft 499kts
08-Jan-21 10:13 38.107117 -106.137130 78 37350ft 499kts
08-Jan-21 10:14 38.127462 -105.962353 78 37356ft 499kts
08-Jan-21 10:15 38.147506 -105.787783 78 37365ft 499kts
08-Jan-21 10:16 38.167237 -105.613593 78 37365ft 498kts
08-Jan-21 10:17 38.187000 -105.438890 78 37360ft 497kts
08-Jan-21 10:18 38.206168 -105.264937 78 37354ft 497kts
08-Jan-21 10:19 38.224938 -105.090316 78 37346ft 496kts
08-Jan-21 10:20 38.243375 -104.916538 78 37344ft 496kts
08-Jan-21 10:21 38.262261 -104.742061 78 37365ft 496kts
08-Jan-21 10:22 38.280166 -104.568316 79 37374ft 496kts
08-Jan-21 10:23 38.302511 -104.395527 69 37378ft 492kts
08-Jan-21 10:24 38.343634 -104.229693 67 37366ft 491kts
08-Jan-21 10:25 38.384558 -104.063426 68 37358ft 491kts
08-Jan-21 10:26 38.425915 -103.897287 67 37369ft 490kts
08-Jan-21 10:27 38.466679 -103.731386 68 37368ft 490kts
08-Jan-21 10:28 38.506996 -103.565384 68 37369ft 489kts
08-Jan-21 10:29 38.547127 -103.398864 68 37364ft 490kts
08-Jan-21 10:30 38.587022 -103.232136 68 37362ft 490kts
08-Jan-21 10:31 38.626593 -103.065589 68 37360ft 489kts
08-Jan-21 10:32 38.665961 -102.898714 68 37357ft 490kts
08-Jan-21 10:33 38.705057 -102.731810 69 37353ft 490kts
08-Jan-21 10:34 38.744041 -102.564181 69 37350ft 491kts
08-Jan-21 10:35 38.782843 -102.396121 69 37347ft 490kts
08-Jan-21 10:36 38.821178 -102.228864 69 37341ft 490kts
08-Jan-21 10:37 38.859443 -102.060688 69 37337ft 489kts
08-Jan-21 10:38 38.897330 -101.892949 70 37335ft 489kts
08-Jan-21 10:39 38.935009 -101.724867 70 37426ft 491kts
08-Jan-21 10:40 38.972372 -101.556977 70 38523ft 487kts
08-Jan-21 10:41 39.009236 -101.390032 71 39318ft 487kts
08-Jan-21 10:42 39.045992 -101.222344 71 39333ft 486kts
08-Jan-21 10:43 39.082364 -101.055142 71 39331ft 485kts
08-Jan-21 10:44 39.118471 -100.887896 71 39330ft 485kts
08-Jan-21 10:45 39.154357 -100.720384 72 39330ft 484kts
08-Jan-21 10:46 39.190298 -100.553086 72 39335ft 483kts
08-Jan-21 10:47 39.225357 -100.386028 72 39354ft 482kts
08-Jan-21 10:48 39.260122 -100.219247 72 39369ft 481kts
08-Jan-21 10:49 39.301375 -100.055522 69 39377ft 480kts
08-Jan-21 10:50 39.342564 -99.891746 70 39379ft 478kts
08-Jan-21 10:51 39.383904 -99.727855 69 39380ft 478kts
08-Jan-21 10:52 39.424944 -99.564395 70 39387ft 478kts
08-Jan-21 10:53 39.465691 -99.399786 70 39395ft 478kts
08-Jan-21 10:54 39.505961 -99.235774 70 39403ft 478kts
08-Jan-21 10:55 39.546122 -99.071043 70 39416ft 479kts
08-Jan-21 10:56 39.585929 -98.906616 70 39418ft 478kts
08-Jan-21 10:57 39.625553 -98.741785 70 39420ft 478kts
08-Jan-21 10:58 39.664933 -98.576834 70 39419ft 477kts
08-Jan-21 11:00 39.704006 -98.412000 70 39419ft 477kts
08-Jan-21 11:01 39.742787 -98.247221 71 39423ft 477kts
08-Jan-21 11:02 39.781296 -98.082426 71 39429ft 476kts
08-Jan-21 11:03 39.819561 -97.917496 71 39431ft 476kts
08-Jan-21 11:04 39.857574 -97.752463 71 39425ft 476kts
08-Jan-21 11:05 39.895306 -97.587452 71 39426ft 476kts
08-Jan-21 11:06 39.932911 -97.421784 71 39428ft 476kts
08-Jan-21 11:07 39.970140 -97.256565 71 39428ft 476kts
08-Jan-21 11:08 40.007208 -97.090840 71 39431ft 474kts
08-Jan-21 11:09 40.043746 -96.926248 71 39433ft 472kts
08-Jan-21 11:10 40.080058 -96.761456 71 39433ft 471kts
08-Jan-21 11:11 40.116026 -96.597536 71 39434ft 470kts
08-Jan-21 11:12 40.152004 -96.432663 72 39435ft 471kts
08-Jan-21 11:13 40.187299 -96.267644 72 39436ft 470kts
08-Jan-21 11:14 40.225488 -96.104344 68 39437ft 469kts
08-Jan-21 11:14 40.260055 -95.969076 69 39438ft 469kts
08-Jan-21 11:16 40.307508 -95.779200 69 39442ft 469kts
08-Jan-21 11:17 40.348727 -95.617101 69 39441ft 469kts
08-Jan-21 11:17 40.382504 -95.481491 69 39440ft 469kts
08-Jan-21 11:18 40.422593 -95.319087 70 39439ft 468kts
08-Jan-21 11:19 40.462487 -95.156267 70 39435ft 468kts
08-Jan-21 11:20 40.502122 -94.993357 70 39431ft 468kts
08-Jan-21 11:21 40.541473 -94.830482 70 39431ft 467kts
08-Jan-21 11:22 40.580601 -94.667380 70 39432ft 467kts
08-Jan-21 11:23 40.619501 -94.504103 70 39428ft 467kts
08-Jan-21 11:24 40.658271 -94.340200 70 39416ft 467kts
08-Jan-21 11:25 40.696630 -94.176875 70 39410ft 467kts
08-Jan-21 11:26 40.734874 -94.012870 71 39410ft 467kts
08-Jan-21 11:27 40.773138 -93.849280 71 39409ft 467kts
08-Jan-21 11:28 40.810581 -93.685221 71 39410ft 466kts
08-Jan-21 11:29 40.842417 -93.519128 80 39410ft 468kts
08-Jan-21 11:30 40.857530 -93.348311 81 39410ft 468kts
08-Jan-21 11:31 40.872312 -93.177042 82 39409ft 468kts
08-Jan-21 11:32 40.887647 -93.006681 81 39412ft 468kts
08-Jan-21 11:33 40.902662 -92.835312 82 39409ft 468kts
08-Jan-21 11:34 40.917115 -92.664815 82 39411ft 468kts
08-Jan-21 11:35 40.931350 -92.493499 82 39410ft 468kts
08-Jan-21 11:36 40.945281 -92.322643 82 39406ft 467kts
08-Jan-21 11:37 40.959004 -92.151133 82 39403ft 467kts
08-Jan-21 11:38 40.972438 -91.980007 82 39400ft 468kts
08-Jan-21 11:39 40.985658 -91.808306 82 39398ft 467kts
08-Jan-21 11:40 40.998573 -91.637214 83 39397ft 467kts
08-Jan-21 11:41 41.011221 -91.466238 83 39384ft 467kts
08-Jan-21 11:42 41.023665 -91.294587 83 36899ft 469kts
08-Jan-21 11:43 41.035945 -91.122583 83 33732ft 468kts
08-Jan-21 11:44 41.047993 -90.952796 84 31024ft 454kts
08-Jan-21 11:45 41.058840 -90.789523 84 28585ft 436kts
08-Jan-21 11:46 41.070395 -90.632337 83 26185ft 419kts
08-Jan-21 11:47 41.082423 -90.481899 83 23872ft 401kts
08-Jan-21 11:48 41.094063 -90.339351 83 22805ft 384kts
08-Jan-21 11:49 41.104974 -90.198233 83 22109ft 382kts
08-Jan-21 11:50 41.115628 -90.058618 83 21413ft 377kts
08-Jan-21 11:51 41.125388 -89.921074 83 20582ft 371kts
08-Jan-21 11:52 41.134364 -89.785977 83 19750ft 365kts
08-Jan-21 11:53 41.143287 -89.652935 83 18668ft 359kts
08-Jan-21 11:54 41.151494 -89.522932 83 17259ft 345kts
08-Jan-21 11:55 41.159361 -89.397318 83 15769ft 341kts
08-Jan-21 11:56 41.167765 -89.272172 84 14120ft 333kts
08-Jan-21 11:57 41.175439 -89.151958 84 12533ft 322kts
08-Jan-21 11:58 41.196641 -89.039396 73 11002ft 304kts
08-Jan-21 11:59 41.222890 -88.937853 65 9880ft 274kts
08-Jan-21 12:00 41.255581 -88.847829 64 9240ft 270kts
08-Jan-21 12:01 41.287401 -88.757750 65 8647ft 267kts
08-Jan-21 12:02 41.318385 -88.668993 65 8058ft 262kts
08-Jan-21 12:03 41.348935 -88.581209 64 7479ft 260kts
08-Jan-21 12:04 41.381562 -88.496047 53 6952ft 255kts
08-Jan-21 12:05 41.426558 -88.422803 51 6604ft 254kts
08-Jan-21 12:06 41.470853 -88.349861 51 6270ft 251kts
08-Jan-21 12:07 41.510729 -88.273935 67 6002ft 249kts
08-Jan-21 12:08 41.531875 -88.185314 71 5999ft 251kts
08-Jan-21 12:09 41.551914 -88.099027 71 5707ft 230kts
08-Jan-21 12:10 41.570920 -88.017951 67 4528ft 228kts
08-Jan-21 12:11 41.612160 -87.956156 36 3914ft 225kts
08-Jan-21 12:12 41.659669 -87.910859 42 3310ft 197kts
08-Jan-21 12:13 41.697952 -87.862037 41 2704ft 175kts
08-Jan-21 12:14 41.729506 -87.822152 41 2187ft 136kts
08-Jan-21 12:15 41.755781 -87.788915 41 1387ft 127kts
08-Jan-21 12:16 41.780104 -87.758123 41 653ft 115kts
08-Jan-21 12:17 41.790296 -87.744700 114 628ft 15kts
08-Jan-21 12:18 41.788707 -87.742558 170 628ft 1kts
08-Jan-21 12:19 41.788666 -87.742549 170 628ft 0kts
08-Jan-21 12:20 41.788666 -87.742549 170 628ft 0kts
08-Jan-21 12:21 41.788666 -87.742549 170 628ft 0kts
08-Jan-21 12:22 41.788666 -87.742549 170 628ft 0kts
08-Jan-21 12:23 41.788666 -87.742549 170 628ft 0kts
08-Jan-21 12:24 41.788666 -87.742549 170 628ft 0kts
08-Jan-21 12:25 41.788666 -87.742549 170 628ft 0kts
08-Jan-21 12:26 41.788666 -87.742549 170 628ft 0kts
08-Jan-21 12:27 41.788666 -87.742549 170 628ft 0kts
08-Jan-21 12:28 41.788666 -87.742549 170 628ft 0kts
08-Jan-21 12:29 41.788666 -87.742549 170 628ft 0kts
08-Jan-21 12:30 41.788666 -87.742549 170 628ft 0kts
08-Jan-21 12:31 41.788666 -87.742549 170 628ft 0kts

Navigation Log

Ident Type
Flight plan parsing failed, navigation log unavailable